createdAt,value
2018-05-01T00:00:05.889Z,10.38
2018-05-01T00:01:06.171Z,10.36
2018-05-01T00:02:06.188Z,10.34
2018-05-01T00:03:06.481Z,10.26
2018-05-01T00:04:06.489Z,10.29
2018-05-01T00:05:05.998Z,10.2
2018-05-01T00:06:06.274Z,10.3
2018-05-01T00:08:06.575Z,10.3
2018-05-01T00:09:06.336Z,10.29
2018-05-01T00:10:06.616Z,10.27
2018-05-01T00:11:21.039Z,10.32
2018-05-01T00:12:06.402Z,10.38
2018-05-01T00:13:06.685Z,10.38
2018-05-01T00:14:06.702Z,10.45
2018-05-01T00:15:06.466Z,10.34
2018-05-01T00:16:06.480Z,10.55
2018-05-01T00:18:06.523Z,10.64
2018-05-01T00:19:06.285Z,10.76
2018-05-01T00:20:06.304Z,10.86
2018-05-01T00:21:06.589Z,10.91
2018-05-01T00:22:06.605Z,11
2018-05-01T00:23:06.626Z,11.09
2018-05-01T00:24:06.646Z,11.03
2018-05-01T00:25:06.672Z,11.09
2018-05-01T00:26:06.947Z,11.18
2018-05-01T00:27:06.973Z,11.27
2018-05-01T00:28:06.992Z,11.24
2018-05-01T00:29:07.013Z,11.21
2018-05-01T00:30:06.771Z,11.27
2018-05-01T00:31:06.790Z,11.27
2018-05-01T00:32:06.814Z,11.24
2018-05-01T00:33:21.752Z,11.28
2018-05-01T00:34:07.123Z,11.19
2018-05-01T00:35:07.134Z,11.37
2018-05-01T00:36:21.819Z,11.36
2018-05-01T00:37:06.916Z,11.28
2018-05-01T00:38:06.938Z,11.37
2018-05-01T00:39:06.957Z,11.39
2018-05-01T00:40:07.247Z,11.36
2018-05-01T00:41:06.740Z,11.39
2018-05-01T00:42:07.021Z,11.43
2018-05-01T00:43:21.700Z,11.29
2018-05-01T00:44:07.072Z,11.27
2018-05-01T00:45:07.347Z,11.25
2018-05-01T00:46:07.360Z,11.28
2018-05-01T00:48:07.407Z,11.27
2018-05-01T00:50:07.191Z,11.27
2018-05-01T00:51:07.206Z,11.21
2018-05-01T00:52:07.234Z,11.22
2018-05-01T00:53:07.253Z,11.25
2018-05-01T00:54:07.282Z,11.32
2018-05-01T00:55:07.554Z,11.32
2018-05-01T00:56:07.313Z,11.32
2018-05-01T00:57:07.335Z,11.43
2018-05-01T00:58:07.610Z,11.47
2018-05-01T00:59:22.034Z,11.54
2018-05-01T01:00:07.393Z,11.64
2018-05-01T01:01:07.157Z,11.61
2018-05-01T01:02:07.439Z,11.73
2018-05-01T01:03:07.720Z,11.72
2018-05-01T01:05:22.421Z,11.78
2018-05-01T01:06:07.779Z,11.69
2018-05-01T01:07:07.540Z,11.78
2018-05-01T01:08:07.561Z,11.95
2018-05-01T01:09:07.583Z,12.09
2018-05-01T01:10:07.862Z,12.1
2018-05-01T01:12:07.904Z,12.16
2018-05-01T01:13:07.938Z,12.2
2018-05-01T01:14:22.347Z,12.17
2018-05-01T01:15:07.979Z,12.23
2018-05-01T01:16:07.992Z,12.24
2018-05-01T01:17:07.750Z,12.27
2018-05-01T01:18:08.030Z,12.37
2018-05-01T01:20:22.731Z,12.45
2018-05-01T01:21:08.095Z,12.47
2018-05-01T01:22:07.594Z,12.39
2018-05-01T01:23:07.975Z,12.49
2018-05-01T01:24:07.894Z,12.42
2018-05-01T01:25:07.917Z,12.46
2018-05-01T01:26:08.197Z,12.5
2018-05-01T01:27:08.219Z,12.47
2018-05-01T01:28:08.241Z,12.52
2018-05-01T01:29:22.920Z,12.5
2018-05-01T01:30:22.682Z,12.45
2018-05-01T01:31:08.300Z,12.45
2018-05-01T01:33:08.084Z,12.41
2018-05-01T01:34:08.365Z,12.41
2018-05-01T01:35:08.129Z,12.32
2018-05-01T01:38:08.451Z,12.49
2018-05-01T01:39:08.470Z,12.45
2018-05-01T01:40:08.490Z,12.52
2018-05-01T01:41:08.515Z,12.45
2018-05-01T01:42:08.542Z,12.49
2018-05-01T01:43:08.298Z,12.54
2018-05-01T01:44:08.328Z,12.46
2018-05-01T01:45:08.603Z,12.47
2018-05-01T01:46:08.622Z,12.6
2018-05-01T01:47:08.123Z,12.54
2018-05-01T01:48:08.756Z,12.53
2018-05-01T01:49:08.682Z,12.59
2018-05-01T01:50:08.186Z,12.67
2018-05-01T01:51:08.466Z,12.64
2018-05-01T01:52:23.503Z,12.67
2018-05-01T01:53:08.509Z,12.59
2018-05-01T01:54:08.791Z,12.67
2018-05-01T01:55:08.551Z,12.67
2018-05-01T01:56:08.831Z,12.6
2018-05-01T01:57:08.853Z,12.53
2018-05-01T01:58:23.537Z,12.68
2018-05-01T01:59:23.555Z,12.67
2018-05-01T02:00:08.916Z,12.7
2018-05-01T02:01:08.936Z,12.67
2018-05-01T02:02:08.959Z,12.7
2018-05-01T02:03:08.461Z,12.71
2018-05-01T02:04:08.998Z,12.74
2018-05-01T02:05:09.025Z,12.78
2018-05-01T02:06:08.781Z,12.75
2018-05-01T02:07:08.805Z,12.75
2018-05-01T02:08:23.742Z,12.67
2018-05-01T02:09:08.846Z,12.77
2018-05-01T02:10:09.126Z,12.67
2018-05-01T02:12:08.909Z,12.68
2018-05-01T02:13:09.190Z,12.68
2018-05-01T02:14:09.214Z,12.75
2018-05-01T02:15:08.973Z,12.67
2018-05-01T02:16:09.257Z,12.72
2018-05-01T02:17:09.014Z,12.77
2018-05-01T02:18:09.292Z,12.83
2018-05-01T02:19:09.321Z,12.85
2018-05-01T02:20:09.079Z,12.71
2018-05-01T02:21:09.352Z,12.71
2018-05-01T02:22:09.381Z,12.79
2018-05-01T02:23:09.403Z,12.74
2018-05-01T02:24:24.082Z,12.68
2018-05-01T02:25:09.447Z,12.75
2018-05-01T02:26:09.463Z,12.82
2018-05-01T02:27:09.493Z,12.83
2018-05-01T02:28:09.252Z,12.78
2018-05-01T02:29:24.191Z,12.82
2018-05-01T02:30:09.289Z,12.78
2018-05-01T02:31:09.311Z,12.89
2018-05-01T02:32:09.593Z,12.85
2018-05-01T02:33:24.016Z,12.9
2018-05-01T02:34:09.381Z,12.9
2018-05-01T02:35:09.664Z,12.87
2018-05-01T02:36:09.687Z,12.85
2018-05-01T02:37:09.707Z,12.85
2018-05-01T02:38:09.724Z,12.82
2018-05-01T02:39:09.742Z,12.82
2018-05-01T02:41:10.081Z,12.74
2018-05-01T02:42:09.551Z,12.79
2018-05-01T02:43:09.829Z,12.72
2018-05-01T02:44:09.849Z,12.77
2018-05-01T02:46:09.379Z,12.77
2018-05-01T02:47:09.913Z,12.78
2018-05-01T02:48:09.673Z,12.74
2018-05-01T02:49:09.954Z,12.77
2018-05-01T02:50:09.982Z,12.89
2018-05-01T02:51:09.737Z,12.87
2018-05-01T02:52:10.019Z,12.9
2018-05-01T02:53:09.782Z,12.9
2018-05-01T02:54:09.545Z,12.89
2018-05-01T02:56:10.103Z,13
2018-05-01T02:57:10.128Z,13.01
2018-05-01T02:59:10.166Z,13
2018-05-01T03:00:09.930Z,13.01
2018-05-01T03:01:10.215Z,13.05
2018-05-01T03:02:24.890Z,13.01
2018-05-01T03:03:10.256Z,13
2018-05-01T03:04:10.274Z,12.96
2018-05-01T03:05:10.293Z,12.92
2018-05-01T03:06:10.059Z,12.97
2018-05-01T03:07:10.076Z,12.9
2018-05-01T03:08:25.025Z,12.86
2018-05-01T03:09:10.411Z,12.86
2018-05-01T03:10:10.399Z,12.92
2018-05-01T03:11:10.425Z,13.03
2018-05-01T03:12:10.183Z,13.11
2018-05-01T03:13:10.209Z,12.89
2018-05-01T03:15:10.247Z,12.95
2018-05-01T03:16:10.531Z,12.97
2018-05-01T03:17:25.210Z,12.89
2018-05-01T03:18:10.571Z,12.97
2018-05-01T03:19:10.589Z,12.9
2018-05-01T03:20:10.615Z,12.93
2018-05-01T03:21:25.034Z,12.89
2018-05-01T03:22:10.652Z,12.87
2018-05-01T03:23:10.682Z,12.85
2018-05-01T03:24:10.442Z,12.85
2018-05-01T03:25:10.719Z,12.83
2018-05-01T03:27:25.426Z,12.82
2018-05-01T03:28:10.781Z,12.79
2018-05-01T03:29:10.552Z,12.71
2018-05-01T03:30:10.576Z,12.75
2018-05-01T03:31:10.846Z,12.65
2018-05-01T03:32:10.868Z,12.71
2018-05-01T03:33:10.895Z,12.67
2018-05-01T03:34:10.907Z,12.59
2018-05-01T03:35:10.671Z,12.68
2018-05-01T03:36:10.699Z,12.67
2018-05-01T03:37:10.972Z,12.71
2018-05-01T03:38:10.992Z,12.72
2018-05-01T03:39:11.036Z,12.75
2018-05-01T03:40:11.035Z,12.82
2018-05-01T03:41:11.063Z,12.87
2018-05-01T03:42:10.819Z,12.85
2018-05-01T03:43:25.501Z,12.95
2018-05-01T03:44:10.861Z,12.93
2018-05-01T03:45:11.141Z,12.97
2018-05-01T03:47:11.185Z,13.14
2018-05-01T03:48:11.205Z,13.17
2018-05-01T03:49:11.227Z,13.19
2018-05-01T03:50:10.730Z,13.15
2018-05-01T03:51:11.270Z,13.25
2018-05-01T03:52:11.030Z,13.29
2018-05-01T03:53:11.311Z,13.54
2018-05-01T03:54:11.078Z,13.46
2018-05-01T03:55:11.095Z,13.42
2018-05-01T03:56:11.195Z,13.36
2018-05-01T03:57:10.879Z,13.48
2018-05-01T03:58:11.420Z,13.36
2018-05-01T03:59:25.839Z,13.49
2018-05-01T04:00:11.463Z,13.49
2018-05-01T04:01:11.222Z,13.44
2018-05-01T04:02:11.623Z,13.33
2018-05-01T04:03:11.524Z,13.38
2018-05-01T04:04:11.543Z,13.38
2018-05-01T04:05:26.230Z,13.38
2018-05-01T04:06:11.330Z,13.38
2018-05-01T04:07:11.349Z,13.42
2018-05-01T04:08:11.731Z,13.36
2018-05-01T04:09:11.650Z,13.33
2018-05-01T04:10:26.073Z,13.33
2018-05-01T04:11:11.696Z,13.41
2018-05-01T04:12:11.457Z,13.42
2018-05-01T04:13:11.741Z,13.36
2018-05-01T04:15:26.440Z,13.39
2018-05-01T04:17:11.565Z,13.38
2018-05-01T04:18:11.615Z,13.28
2018-05-01T04:19:11.865Z,13.38
2018-05-01T04:20:11.895Z,13.33
2018-05-01T04:21:11.907Z,13.39
2018-05-01T04:22:11.936Z,13.33
2018-05-01T04:23:11.693Z,13.22
2018-05-01T04:24:11.976Z,13.36
2018-05-01T04:25:11.736Z,13.28
2018-05-01T04:26:12.031Z,13.2
2018-05-01T04:27:12.034Z,13.2
2018-05-01T04:28:12.060Z,13.23
2018-05-01T04:30:26.768Z,13.22
2018-05-01T04:31:12.125Z,13.23
2018-05-01T04:32:11.626Z,13.14
2018-05-01T04:34:12.187Z,13.15
2018-05-01T04:35:12.208Z,13.25
2018-05-01T04:36:11.972Z,13.23
2018-05-01T04:37:12.248Z,13.3
2018-05-01T04:38:12.272Z,13.33
2018-05-01T04:39:12.036Z,13.44
2018-05-01T04:40:12.319Z,13.48
2018-05-01T04:41:12.345Z,13.42
2018-05-01T04:42:12.358Z,13.45
2018-05-01T04:43:12.380Z,13.45
2018-05-01T04:44:12.406Z,13.48
2018-05-01T04:45:12.424Z,13.57
2018-05-01T04:46:12.184Z,13.57
2018-05-01T04:47:12.565Z,13.64
2018-05-01T04:49:12.252Z,13.6
2018-05-01T04:50:12.531Z,13.57
2018-05-01T04:51:12.552Z,13.62
2018-05-01T04:52:12.576Z,13.62
2018-05-01T04:53:12.079Z,13.63
2018-05-01T04:54:12.614Z,13.66
2018-05-01T04:55:12.642Z,13.88
2018-05-01T04:56:12.659Z,13.91
2018-05-01T04:57:12.681Z,14.02
2018-05-01T04:58:12.711Z,14.09
2018-05-01T04:59:12.729Z,14.09
2018-05-01T05:00:12.751Z,14.1
2018-05-01T05:01:12.512Z,14.04
2018-05-01T05:02:27.453Z,14.06
2018-05-01T05:03:12.810Z,14.09
2018-05-01T05:04:27.505Z,13.99
2018-05-01T05:05:12.856Z,13.95
2018-05-01T05:06:12.880Z,13.95
2018-05-01T05:07:12.900Z,14.02
2018-05-01T05:08:12.926Z,14.14
2018-05-01T05:09:12.949Z,14.1
2018-05-01T05:10:12.972Z,14.18
2018-05-01T05:11:12.991Z,14.22
2018-05-01T05:12:13.009Z,14.28
2018-05-01T05:14:13.055Z,14.47
2018-05-01T05:15:12.821Z,14.65
2018-05-01T05:16:13.096Z,14.77
2018-05-01T05:18:27.809Z,14.98
2018-05-01T05:19:13.168Z,15.03
2018-05-01T05:21:13.210Z,15.07
2018-05-01T05:22:13.241Z,15.03
2018-05-01T05:23:13.253Z,15.06
2018-05-01T05:24:13.275Z,14.98
2018-05-01T05:25:27.969Z,15.02
2018-05-01T05:26:27.983Z,14.98
2018-05-01T05:27:13.346Z,14.94
2018-05-01T05:28:13.369Z,14.94
2018-05-01T05:29:13.390Z,14.99
2018-05-01T05:30:13.415Z,15.03
2018-05-01T05:32:13.463Z,15.16
2018-05-01T05:33:13.223Z,15.27
2018-05-01T05:34:27.905Z,15.44
2018-05-01T05:35:13.539Z,15.51
2018-05-01T05:36:13.577Z,15.47
2018-05-01T05:37:13.324Z,15.51
2018-05-01T05:38:13.604Z,15.57
2018-05-01T05:39:13.618Z,15.53
2018-05-01T05:40:13.639Z,15.54
2018-05-01T05:41:28.322Z,15.41
2018-05-01T05:43:13.708Z,15.38
2018-05-01T05:44:13.472Z,15.38
2018-05-01T05:45:13.496Z,15.49
2018-05-01T05:46:13.880Z,15.43
2018-05-01T05:47:13.539Z,15.34
2018-05-01T05:48:13.824Z,15.31
2018-05-01T05:49:13.593Z,15.27
2018-05-01T05:50:28.538Z,15.38
2018-05-01T05:51:13.894Z,15.41
2018-05-01T05:52:13.658Z,15.43
2018-05-01T05:53:13.940Z,15.47
2018-05-01T05:54:13.963Z,15.67
2018-05-01T05:55:13.985Z,16.39
2018-05-01T05:56:13.751Z,17.33
2018-05-01T05:57:14.033Z,17.89
2018-05-01T05:58:14.058Z,18.66
2018-05-01T05:59:14.084Z,19.4
2018-05-01T06:00:14.108Z,19.51
2018-05-01T06:01:13.977Z,19.77
2018-05-01T06:02:14.159Z,20.05
2018-05-01T06:03:13.668Z,20.21
2018-05-01T06:04:14.216Z,20.36
2018-05-01T06:06:14.003Z,20.41
2018-05-01T06:07:14.293Z,20.74
2018-05-01T06:08:14.322Z,20.57
2018-05-01T06:09:14.349Z,20.42
2018-05-01T06:10:14.371Z,20.7
2018-05-01T06:11:14.405Z,20.97
2018-05-01T06:12:29.088Z,20.98
2018-05-01T06:13:14.558Z,20.77
2018-05-01T06:14:14.222Z,20.82
2018-05-01T06:15:14.507Z,20.91
2018-05-01T06:16:14.539Z,21.21
2018-05-01T06:17:14.568Z,21.71
2018-05-01T06:18:14.595Z,21.88
2018-05-01T06:19:14.629Z,21.91
2018-05-01T06:20:14.664Z,22.14
2018-05-01T06:21:14.428Z,21.82
2018-05-01T06:23:14.755Z,22.17
2018-05-01T06:24:14.777Z,22.62
2018-05-01T06:25:14.811Z,22.98
2018-05-01T06:26:14.844Z,22.68
2018-05-01T06:27:14.876Z,22.73
2018-05-01T06:28:14.900Z,22.95
2018-05-01T06:29:29.597Z,23.2
2018-05-01T06:30:14.708Z,23.31
2018-05-01T06:31:15.386Z,22.73
2018-05-01T06:32:15.032Z,22.36
2018-05-01T06:33:15.072Z,21.8
2018-05-01T06:34:15.099Z,22.22
2018-05-01T06:35:15.127Z,22.58
2018-05-01T06:36:15.163Z,22.92
2018-05-01T06:37:29.989Z,23.33
2018-05-01T06:38:15.227Z,23.46
2018-05-01T06:39:15.005Z,23.93
2018-05-01T06:40:15.032Z,23.97
2018-05-01T06:41:15.322Z,23.91
2018-05-01T06:42:15.365Z,23.91
2018-05-01T06:43:15.492Z,23.76
2018-05-01T06:44:15.162Z,24.16
2018-05-01T06:45:15.461Z,24.37
2018-05-01T06:46:15.231Z,24.34
2018-05-01T06:47:15.264Z,23.93
2018-05-01T06:48:15.559Z,23.97
2018-05-01T06:49:15.594Z,24.12
2018-05-01T06:50:15.626Z,23.91
2018-05-01T06:51:15.662Z,24.22
2018-05-01T06:52:15.437Z,24.3
2018-05-01T06:53:30.389Z,24.69
2018-05-01T06:56:15.827Z,25.08
2018-05-01T06:57:15.862Z,25.18
2018-05-01T06:58:15.650Z,25.08
2018-05-01T06:59:16.032Z,24.73
2018-05-01T07:00:15.707Z,24.34
2018-05-01T07:01:15.999Z,24.46
2018-05-01T07:02:16.039Z,24.43
2018-05-01T07:03:16.071Z,24.58
2018-05-01T07:04:16.340Z,24.57
2018-05-01T07:05:16.140Z,24.43
2018-05-01T07:06:16.177Z,24.24
2018-05-01T07:07:16.217Z,23.79
2018-05-01T07:09:30.944Z,24.1
2018-05-01T07:10:16.220Z,24.24
2018-05-01T07:11:16.346Z,24.76
2018-05-01T07:12:16.382Z,24.6
2018-05-01T07:13:16.413Z,24.61
2018-05-01T07:14:16.448Z,24.42
2018-05-01T07:15:16.230Z,24.35
2018-05-01T07:16:31.182Z,24.42
2018-05-01T07:17:16.553Z,24.62
2018-05-01T07:18:16.591Z,24.32
2018-05-01T07:19:16.364Z,24.4
2018-05-01T07:20:16.661Z,24.57
2018-05-01T07:21:16.516Z,24.71
2018-05-01T07:22:16.725Z,24.76
2018-05-01T07:23:16.764Z,24.58
2018-05-01T07:24:16.799Z,24.81
2018-05-01T07:25:31.496Z,25.17
2018-05-01T07:26:16.863Z,25.57
2018-05-01T07:27:16.902Z,25.54
2018-05-01T07:29:16.971Z,24.93
2018-05-01T07:30:17.010Z,23.97
2018-05-01T07:31:17.040Z,23.58
2018-05-01T07:32:16.816Z,23.87
2018-05-01T07:33:17.113Z,23.19
2018-05-01T07:34:17.151Z,22.97
2018-05-01T07:35:17.177Z,23.19
2018-05-01T07:36:17.216Z,23.68
2018-05-01T07:37:17.254Z,23.66
2018-05-01T07:38:17.288Z,23.36
2018-05-01T07:39:17.315Z,23.23
2018-05-01T07:41:17.389Z,23.61
2018-05-01T07:42:17.419Z,23.31
2018-05-01T07:43:17.475Z,23.38
2018-05-01T07:44:17.585Z,23.28
2018-05-01T07:45:17.526Z,23.33
2018-05-01T07:46:17.557Z,23.69
2018-05-01T07:47:17.586Z,23.78
2018-05-01T07:48:17.620Z,23.79
2018-05-01T07:49:17.654Z,23.69
2018-05-01T07:50:17.688Z,23.22
2018-05-01T07:51:17.463Z,22.7
2018-05-01T07:52:17.753Z,22.9
2018-05-01T07:53:17.786Z,23.51
2018-05-01T07:54:17.820Z,23.87
2018-05-01T07:55:17.855Z,23.55
2018-05-01T07:56:17.370Z,23.79
2018-05-01T07:57:17.999Z,24
2018-05-01T07:58:17.949Z,23.22
2018-05-01T07:59:17.981Z,23.28
2018-05-01T08:00:18.087Z,23.31
2018-05-01T08:01:18.048Z,22.95
2018-05-01T08:02:18.080Z,22.07
2018-05-01T08:03:18.111Z,22.18
2018-05-01T08:04:17.891Z,22.02
2018-05-01T08:05:18.175Z,21.64
2018-05-01T08:06:18.212Z,21.21
2018-05-01T08:07:17.983Z,21.22
2018-05-01T08:08:18.274Z,21.12
2018-05-01T08:09:18.046Z,20.98
2018-05-01T08:10:18.335Z,20.76
2018-05-01T08:11:18.112Z,20.23
2018-05-01T08:12:32.803Z,19.98
2018-05-01T08:13:18.430Z,20.03
2018-05-01T08:14:18.462Z,20.13
2018-05-01T08:15:18.491Z,19.62
2018-05-01T08:16:18.519Z,19.59
2018-05-01T08:17:18.625Z,19.23
2018-05-01T08:18:18.579Z,19.26
2018-05-01T08:19:18.346Z,19.02
2018-05-01T08:20:18.638Z,18.88
2018-05-01T08:21:18.664Z,18.7
2018-05-01T08:22:18.435Z,18.67
2018-05-01T08:23:18.472Z,18.48
2018-05-01T08:24:18.512Z,18.44
2018-05-01T08:25:18.777Z,18.55
2018-05-01T08:26:18.546Z,18.57
2018-05-01T08:27:18.574Z,18.42
2018-05-01T08:28:33.523Z,18.39
2018-05-01T08:29:18.889Z,18.39
2018-05-01T08:30:18.922Z,18.39
2018-05-01T08:31:18.680Z,18.36
2018-05-01T08:32:18.973Z,18.48
2018-05-01T08:33:18.994Z,18.39
2018-05-01T08:34:19.029Z,18.42
2018-05-01T08:35:19.048Z,18.11
2018-05-01T08:36:19.079Z,17.95
2018-05-01T08:37:19.100Z,18.23
2018-05-01T08:38:19.133Z,18.32
2018-05-01T08:39:19.160Z,18.12
2018-05-01T08:40:19.181Z,17.87
2018-05-01T08:41:19.206Z,18.02
2018-05-01T08:42:18.982Z,18.08
2018-05-01T08:43:19.259Z,18.32
2018-05-01T08:44:33.946Z,18.72
2018-05-01T08:45:19.563Z,18.67
2018-05-01T08:46:19.390Z,18.78
2018-05-01T08:48:19.395Z,18.73
2018-05-01T08:49:19.419Z,18.73
2018-05-01T08:50:19.444Z,18.82
2018-05-01T08:51:19.218Z,18.66
2018-05-01T08:52:19.492Z,18.75
2018-05-01T08:53:19.518Z,19
2018-05-01T08:54:19.545Z,19.14
2018-05-01T08:55:19.313Z,19.18
2018-05-01T08:56:19.338Z,19.21
2018-05-01T08:57:19.851Z,19.16
2018-05-01T08:58:19.396Z,19.41
2018-05-01T09:00:34.106Z,19.29
2018-05-01T09:01:19.728Z,19.51
2018-05-01T09:02:19.754Z,19.66
2018-05-01T09:03:19.779Z,19.69
2018-05-01T09:04:19.933Z,19.88
2018-05-01T09:05:19.831Z,19.77
2018-05-01T09:06:34.524Z,19.63
2018-05-01T09:07:19.892Z,19.71
2018-05-01T09:08:19.909Z,19.66
2018-05-01T09:09:19.938Z,19.48
2018-05-01T09:10:19.963Z,19.21
2018-05-01T09:11:19.996Z,19.47
2018-05-01T09:12:19.757Z,19.14
2018-05-01T09:13:20.047Z,19.31
2018-05-01T09:14:19.812Z,19.78
2018-05-01T09:16:20.124Z,19.08
2018-05-01T09:17:20.147Z,19.02
2018-05-01T09:18:20.881Z,19.18
2018-05-01T09:19:20.203Z,19.18
2018-05-01T09:20:20.075Z,19.16
2018-05-01T09:21:20.260Z,19.14
2018-05-01T09:22:20.292Z,19.16
2018-05-01T09:23:34.971Z,19.61
2018-05-01T09:24:34.995Z,19.74
2018-05-01T09:25:20.364Z,19.91
2018-05-01T09:26:20.148Z,20.33
2018-05-01T09:27:20.422Z,20.51
2018-05-01T09:28:20.442Z,20.35
2018-05-01T09:29:20.470Z,20.7
2018-05-01T09:30:20.240Z,20.82
2018-05-01T09:31:20.267Z,20.99
2018-05-01T09:33:20.327Z,20.85
2018-05-01T09:34:20.361Z,20.73
2018-05-01T09:35:20.854Z,20.82
2018-05-01T09:36:20.667Z,21.37
2018-05-01T09:37:35.098Z,20.88
2018-05-01T09:38:20.202Z,20.7
2018-05-01T09:39:20.749Z,20.77
2018-05-01T09:40:20.518Z,20.76
2018-05-01T09:41:20.806Z,20.54
2018-05-01T09:42:20.576Z,20.33
2018-05-01T09:43:20.857Z,20.48
2018-05-01T09:44:20.367Z,20.69
2018-05-01T09:45:20.915Z,21.1
2018-05-01T09:46:20.945Z,21.43
2018-05-01T09:47:35.727Z,21.43
2018-05-01T09:48:21.006Z,21.69
2018-05-01T09:49:21.033Z,22.06
2018-05-01T09:50:21.054Z,21.99
2018-05-01T09:51:21.089Z,22.24
2018-05-01T09:52:21.107Z,22.24
2018-05-01T09:53:21.306Z,22.49
2018-05-01T09:54:21.168Z,22.45
2018-05-01T09:55:35.859Z,22.6
2018-05-01T09:56:21.221Z,22.64
2018-05-01T09:58:21.276Z,22.06
2018-05-01T09:59:21.309Z,21.71
2018-05-01T10:00:21.076Z,21.46
2018-05-01T10:01:21.359Z,21.46
2018-05-01T10:02:21.396Z,21.56
2018-05-01T10:03:36.078Z,22.07
2018-05-01T10:04:21.450Z,22.31
2018-05-01T10:05:21.476Z,22.12
2018-05-01T10:06:21.503Z,21.86
2018-05-01T10:07:21.531Z,21.8
2018-05-01T10:08:21.559Z,21.82
2018-05-01T10:09:36.248Z,21.47
2018-05-01T10:10:21.363Z,21.56
2018-05-01T10:11:21.642Z,21.71
2018-05-01T10:12:21.868Z,21.47
2018-05-01T10:13:21.702Z,21.53
2018-05-01T10:14:21.728Z,21.43
2018-05-01T10:15:21.755Z,21.21
2018-05-01T10:16:21.524Z,21.47
2018-05-01T10:17:21.549Z,21.47
2018-05-01T10:18:21.584Z,21.59
2018-05-01T10:19:36.522Z,22.09
2018-05-01T10:20:21.895Z,21.98
2018-05-01T10:21:21.922Z,21.84
2018-05-01T10:22:21.947Z,21.99
2018-05-01T10:23:36.638Z,21.47
2018-05-01T10:24:22.002Z,21.35
2018-05-01T10:25:22.033Z,20.89
2018-05-01T10:26:21.800Z,20.59
2018-05-01T10:27:22.090Z,20.47
2018-05-01T10:28:22.111Z,20.38
2018-05-01T10:29:22.141Z,20.39
2018-05-01T10:30:22.179Z,20.41
2018-05-01T10:31:21.937Z,20.38
2018-05-01T10:32:22.221Z,20.35
2018-05-01T10:33:22.254Z,20.13
2018-05-01T10:34:22.019Z,19.91
2018-05-01T10:35:36.705Z,19.78
2018-05-01T10:36:22.330Z,19.66
2018-05-01T10:37:22.359Z,19.73
2018-05-01T10:38:22.129Z,19.83
2018-05-01T10:39:22.416Z,19.96
2018-05-01T10:40:22.437Z,20.14
2018-05-01T10:41:22.213Z,20.08
2018-05-01T10:42:22.237Z,20.08
2018-05-01T10:43:37.180Z,20.17
2018-05-01T10:44:22.548Z,20.08
2018-05-01T10:45:22.571Z,20.03
2018-05-01T10:46:22.606Z,19.71
2018-05-01T10:47:22.625Z,19.56
2018-05-01T10:48:22.395Z,19.51
2018-05-01T10:49:22.881Z,19.21
2018-05-01T10:50:37.371Z,19.29
2018-05-01T10:51:22.473Z,19.37
2018-05-01T10:52:22.501Z,19.13
2018-05-01T10:53:37.451Z,19.26
2018-05-01T10:54:22.814Z,19.46
2018-05-01T10:55:22.840Z,19.51
2018-05-01T10:56:22.605Z,19.19
2018-05-01T10:57:22.637Z,19.13
2018-05-01T10:58:22.913Z,19.11
2018-05-01T10:59:22.944Z,18.98
2018-05-01T11:00:37.641Z,18.73
2018-05-01T11:01:23.074Z,19.02
2018-05-01T11:02:22.759Z,19.18
2018-05-01T11:03:22.525Z,19.39
2018-05-01T11:04:23.069Z,19.21
2018-05-01T11:06:23.123Z,19.39
2018-05-01T11:07:23.148Z,19.59
2018-05-01T11:08:37.838Z,19.74
2018-05-01T11:09:23.199Z,19.59
2018-05-01T11:10:22.967Z,19.73
2018-05-01T11:11:23.248Z,19.68
2018-05-01T11:12:23.016Z,19.81
2018-05-01T11:13:37.961Z,19.74
2018-05-01T11:14:23.319Z,19.71
2018-05-01T11:15:23.093Z,19.66
2018-05-01T11:16:23.374Z,19.59
2018-05-01T11:17:23.415Z,19.58
2018-05-01T11:18:23.429Z,19.4
2018-05-01T11:19:23.449Z,19.51
2018-05-01T11:22:38.185Z,19.58
2018-05-01T11:24:23.319Z,19.63
2018-05-01T11:25:23.343Z,19.66
2018-05-01T11:26:23.762Z,19.69
2018-05-01T11:27:23.672Z,19.58
2018-05-01T11:28:23.678Z,19.56
2018-05-01T11:29:23.707Z,19.51
2018-05-01T11:30:23.476Z,19.55
2018-05-01T11:31:23.756Z,19.61
2018-05-01T11:32:23.520Z,19.56
2018-05-01T11:33:23.812Z,19.47
2018-05-01T11:34:23.828Z,19.63
2018-05-01T11:35:23.856Z,19.54
2018-05-01T11:36:23.637Z,19.76
2018-05-01T11:37:23.646Z,19.74
2018-05-01T11:38:38.685Z,20.01
2018-05-01T11:39:23.706Z,20.03
2018-05-01T11:40:23.978Z,19.87
2018-05-01T11:41:24.006Z,19.62
2018-05-01T11:42:24.030Z,19.74
2018-05-01T11:43:23.801Z,19.76
2018-05-01T11:45:24.105Z,19.58
2018-05-01T11:46:23.989Z,19.58
2018-05-01T11:47:38.817Z,19.5
2018-05-01T11:48:24.183Z,19.43
2018-05-01T11:49:24.208Z,19.48
2018-05-01T11:50:24.232Z,19.54
2018-05-01T11:51:24.255Z,19.62
2018-05-01T11:52:24.022Z,19.8
2018-05-01T11:53:24.311Z,19.73
2018-05-01T11:54:38.993Z,19.74
2018-05-01T11:56:24.388Z,19.43
2018-05-01T11:57:24.413Z,19.26
2018-05-01T11:58:24.441Z,19.29
2018-05-01T11:59:24.203Z,19.21
2018-05-01T12:00:24.482Z,19.33
2018-05-01T12:01:24.506Z,19.22
2018-05-01T12:02:24.536Z,19.18
2018-05-01T12:03:24.560Z,19.36
2018-05-01T12:04:24.592Z,19.36
2018-05-01T12:06:24.637Z,19.48
2018-05-01T12:08:24.682Z,19.16
2018-05-01T12:09:24.708Z,19
2018-05-01T12:10:39.485Z,19.08
2018-05-01T12:11:24.762Z,19.14
2018-05-01T12:12:24.784Z,19.37
2018-05-01T12:13:24.807Z,19.41
2018-05-01T12:14:24.830Z,19.55
2018-05-01T12:15:24.857Z,19.54
2018-05-01T12:16:24.880Z,19.43
2018-05-01T12:17:24.904Z,19.39
2018-05-01T12:18:24.933Z,19.39
2018-05-01T12:19:24.963Z,19.39
2018-05-01T12:20:24.979Z,19.41
2018-05-01T12:21:24.757Z,19.55
2018-05-01T12:22:24.771Z,19.59
2018-05-01T12:23:24.801Z,19.91
2018-05-01T12:24:24.926Z,20.16
2018-05-01T12:25:39.766Z,20.16
2018-05-01T12:26:25.136Z,20.13
2018-05-01T12:27:25.157Z,20.13
2018-05-01T12:28:25.183Z,19.95
2018-05-01T12:29:25.240Z,19.69
2018-05-01T12:30:25.332Z,19.58
2018-05-01T12:31:25.000Z,19.56
2018-05-01T12:32:25.285Z,19.46
2018-05-01T12:33:25.309Z,19.11
2018-05-01T12:34:25.072Z,18.9
2018-05-01T12:35:39.760Z,18.91
2018-05-01T12:36:25.538Z,19
2018-05-01T12:37:25.151Z,19.16
2018-05-01T12:38:25.439Z,19.13
2018-05-01T12:39:25.456Z,19.32
2018-05-01T12:40:25.482Z,19.36
2018-05-01T12:41:25.510Z,19.29
2018-05-01T12:42:25.712Z,19.46
2018-05-01T12:43:25.299Z,19.31
2018-05-01T12:44:25.584Z,19.23
2018-05-01T12:45:25.089Z,18.9
2018-05-01T12:46:25.630Z,18.69
2018-05-01T12:47:25.659Z,18.82
2018-05-01T12:48:26.020Z,18.95
2018-05-01T12:49:25.704Z,19.07
2018-05-01T12:50:25.736Z,18.88
2018-05-01T12:51:25.754Z,19.16
2018-05-01T12:52:25.783Z,19.14
2018-05-01T12:54:25.826Z,19.18
2018-05-01T12:55:25.858Z,19.23
2018-05-01T12:56:25.875Z,19.14
2018-05-01T12:57:40.307Z,19.14
2018-05-01T12:59:40.626Z,19
2018-05-01T13:00:25.977Z,18.92
2018-05-01T13:01:26.008Z,19.13
2018-05-01T13:02:26.033Z,19.14
2018-05-01T13:03:26.062Z,19.1
2018-05-01T13:04:40.739Z,18.88
2018-05-01T13:05:40.765Z,18.92
2018-05-01T13:06:25.874Z,18.84
2018-05-01T13:07:26.151Z,18.82
2018-05-01T13:09:25.945Z,18.98
2018-05-01T13:10:26.229Z,18.87
2018-05-01T13:11:26.251Z,18.88
2018-05-01T13:13:40.962Z,19
2018-05-01T13:14:26.168Z,18.92
2018-05-01T13:15:26.097Z,18.78
2018-05-01T13:16:26.118Z,18.72
2018-05-01T13:17:26.398Z,18.66
2018-05-01T13:18:26.427Z,18.6
2018-05-01T13:19:26.453Z,18.58
2018-05-01T13:20:26.473Z,18.47
2018-05-01T13:21:26.499Z,18.48
2018-05-01T13:22:26.527Z,18.52
2018-05-01T13:24:26.584Z,18.78
2018-05-01T13:25:26.597Z,18.88
2018-05-01T13:26:26.628Z,19.06
2018-05-01T13:27:26.898Z,18.88
2018-05-01T13:28:26.613Z,18.88
2018-05-01T13:29:41.359Z,18.78
2018-05-01T13:30:26.724Z,18.75
2018-05-01T13:31:26.743Z,18.58
2018-05-01T13:32:26.914Z,18.36
2018-05-01T13:33:26.795Z,18.41
2018-05-01T13:34:26.560Z,18.58
2018-05-01T13:35:26.848Z,18.69
2018-05-01T13:36:26.613Z,18.87
2018-05-01T13:37:26.892Z,18.99
2018-05-01T13:38:26.917Z,19.02
2018-05-01T13:39:26.945Z,18.9
2018-05-01T13:40:41.368Z,18.52
2018-05-01T13:41:26.991Z,18.44
2018-05-01T13:42:26.498Z,18.37
2018-05-01T13:43:26.782Z,18.42
2018-05-01T13:44:27.064Z,18.5
2018-05-01T13:45:41.750Z,18.75
2018-05-01T13:46:27.120Z,18.76
2018-05-01T13:47:27.137Z,18.6
2018-05-01T13:48:27.163Z,18.44